Flight Track Log - Related Links

Times and Time Zones

All times are in EDT time to prevent confusion due to time zone crossing. See the AFL1006 flight status page for this flight to view local times or setup timezone preferences in your user account.

Time Position Orientation Groundspeed Altitude Reporting Facility
EDT Latitude Longitude Course Direction KTS MPH feet Rate Location/Type
Mon 11:12:00 AM 55.9663 37.0281 271° West  Level Estimated
Mon 11:13:00 AM 55.9666 36.8724 270° West  Level Estimated
Mon 11:14:00 AM 55.9667 36.7167 270° West  Level Estimated
Mon 11:15:00 AM 55.9666 36.5610 270° West  Level Estimated
Mon 11:16:00 AM 55.9663 36.4053 270° West  Level Estimated
Mon 11:17:00 AM 55.9657 36.2496 270° West  Level Estimated
Mon 11:18:00 AM 55.9650 36.0939 270° West  Level Estimated
Mon 11:19:00 AM 55.9641 35.9382 269° West  Level Estimated
Mon 11:20:00 AM 55.9630 35.7826 269° West  Level Estimated
Mon 11:21:00 AM 55.9617 35.6269 269° West  Level Estimated
Mon 11:22:00 AM 55.9602 35.4712 269° West  Level Estimated
Mon 11:23:00 AM 55.9585 35.3156 269° West  Level Estimated
Mon 11:24:00 AM 55.9567 35.1600 269° West  Level Estimated
Mon 11:25:00 AM 55.9546 35.0044 269° West  Level Estimated
Mon 11:26:00 AM 55.9523 34.8488 269° West  Level Estimated
Mon 11:27:00 AM 55.9498 34.6932 268° West  Level Estimated
Mon 11:28:00 AM 55.9472 34.5377 268° West  Level Estimated
Mon 11:29:00 AM 55.9443 34.3821 268° West  Level Estimated
Mon 11:30:00 AM 55.9412 34.2266 268° West  Level Estimated
Mon 11:31:00 AM 55.9380 34.0711 268° West  Level Estimated
Mon 11:32:00 AM 55.9345 33.9157 268° West  Level Estimated
Mon 11:33:00 AM 55.9309 33.7603 268° West  Level Estimated
Mon 11:34:00 AM 55.9273 33.6178 268° West  Level Estimated
Mon 11:35:00 AM 55.9237 33.4754 267° West  Level Estimated
Mon 11:36:00 AM 55.9198 33.3330 267° West  Level Estimated
Mon 11:37:00 AM 55.9158 33.1906 267° West  Level Estimated
Mon 11:38:00 AM 55.9117 33.0483 267° West  Level Estimated
Mon 11:39:00 AM 55.9073 32.9060 267° West  Level Estimated
Mon 11:40:00 AM 55.9028 32.7637 267° West  Level Estimated
Mon 11:40:16 AM 55.7747 33.7223 263° West 398 458 34,000  Level FlightAware ADS-B
Mon 11:46:33 AM 55.5569 30.6744 262° West 398 458 34,000  Level FlightAware ADS-B
Mon 11:47:33 AM 55.5411 30.4817 262° West 398 458 34,000  Level FlightAware ADS-B
Mon 11:48:34 AM 55.5247 30.2888 261° West 399 459 34,000  Level FlightAware ADS-B
Mon 11:49:34 AM 55.5087 30.1020 261° West 398 458 34,000  Level FlightAware ADS-B
Mon 11:50:34 AM 55.4915 29.9058 261° West 396 456 34,000  Level FlightAware ADS-B
Mon 11:51:33 AM 55.4745 29.7148 261° West 395 455 34,000  Level FlightAware ADS-B
Mon 11:52:52 AM 55.4515 29.4647 261° West 396 456 34,000  Level FlightAware ADS-B
Mon 11:53:49 AM 55.4347 29.2841 261° West 397 457 34,000  Level FlightAware ADS-B
Mon 11:54:49 AM 55.4166 29.0930 261° West 399 459 34,000  Level FlightAware ADS-B
Mon 11:55:49 AM 55.3984 28.9041 260° West 400 460 34,000  Level FlightAware ADS-B
Mon 11:56:50 AM 55.3792 28.7070 260° West 398 458 34,000  Level FlightAware ADS-B
Mon 11:57:49 AM 55.3621 28.5342 260° West 398 458 34,000  Level FlightAware ADS-B
Mon 11:58:29 AM 55.3476 28.3906 260° West 398 458 34,000  Level FlightAware ADS-B
Mon 11:59:27 AM 55.3289 28.2081 260° West 399 459 34,000  Level FlightAware ADS-B
Mon 12:00:49 PM 55.3018 27.9487 259° West 400 460 34,000  Level FlightAware ADS-B
Mon 12:01:29 PM 55.2883 27.8216 260° West 400 460 34,000  Level FlightAware ADS-B
Mon 12:02:29 PM 55.2676 27.6304 259° West 399 459 34,000  Level FlightAware ADS-B
Mon 12:03:29 PM 55.2470 27.4414 259° West 398 458 34,000  Level FlightAware ADS-B
Mon 12:04:29 PM 55.2258 27.2496 259° West 397 457 34,000  Level FlightAware ADS-B
Mon 12:05:45 PM 55.1992 27.0134 259° West 399 459 34,000  Level FlightAware ADS-B
Mon 12:06:50 PM 55.1757 26.8081 259° West 399 459 34,000  Level FlightAware ADS-B
Mon 12:07:49 PM 55.1549 26.6294 259° West 400 460 34,000  Level FlightAware ADS-B
Mon 12:08:50 PM 55.1347 26.4281 266° West 400 460 34,000  Level FlightAware ADS-B
Mon 12:09:49 PM 55.1280 26.2382 266° West 401 461 34,000  Level FlightAware ADS-B
Mon 12:10:49 PM 55.1206 26.0517 266° West 400 460 34,000  Level FlightAware ADS-B
Mon 12:11:26 PM 55.1155 25.9252 266° West 400 460 34,000  Level FlightAware ADS-B (EPSY / SZY)
Mon 12:11:56 PM 55.1114 25.8264 266° West 400 460 34,000  Level FlightAware ADS-B (EPSY / SZY)
Mon 12:12:37 PM 55.1064 25.7118 266° West 399 459 34,000  Level FlightAware ADS-B (EPSY / SZY)
Mon 12:13:09 PM 55.1014 25.5951 266° West 399 459 34,000  Level FlightAware ADS-B
Mon 12:13:49 PM 55.0985 25.4709 270° West 401 461 34,000  Level FlightAware ADS-B
Mon 12:14:19 PM 55.0982 25.3689 269° West 402 463 34,000  Level FlightAware ADS-B (EPSY / SZY)
Mon 12:14:50 PM 55.0972 25.2720 269° West 402 463 34,000  Level FlightAware ADS-B
Mon 12:15:27 PM 55.0955 25.1505 268° West 402 463 34,000  Level FlightAware ADS-B (EPSY / SZY)
Mon 12:15:57 PM 55.0939 25.0523 268° West 402 463 34,000  Level FlightAware ADS-B (EPSY / SZY)
Mon 12:16:42 PM 55.0915 24.9088 268° West 402 463 34,000  Level FlightAware ADS-B (EPSY / SZY)
Mon 12:17:21 PM 55.0894 24.7840 268° West 402 463 34,000  Level FlightAware ADS-B (EPSY / SZY)
Mon 12:18:09 PM 55.0864 24.6278 268° West 401 461 34,000  Level FlightAware ADS-B
Mon 12:18:45 PM 55.0840 24.5098 268° West 401 461 34,000  Level FlightAware ADS-B (EPSY / SZY)
Mon 12:19:15 PM 55.0820 24.4136 268° West 401 461 34,000  Level FlightAware ADS-B (EPSY / SZY)
Mon 12:19:49 PM 55.0797 24.3032 268° West 402 463 34,000  Level FlightAware ADS-B
Mon 12:20:21 PM 55.0774 24.2048 268° West 403 464 34,000  Level FlightAware ADS-B
Mon 12:20:52 PM 55.0749 24.0973 268° West 403 464 34,000  Level FlightAware ADS-B (EPSY / SZY)
Mon 12:21:24 PM 55.0725 23.9982 268° West 402 463 34,000 -290 Level FlightAware ADS-B (EPSY / SZY)
Mon 12:21:54 PM 55.0701 23.8996 268° West 395 455 33,700 -870 Descending FlightAware ADS-B (EPSY / SZY)
Mon 12:22:33 PM 55.0670 23.7780 267° West 395 455 33,000 -1,000 Descending FlightAware ADS-B (EPSY / SZY)
Mon 12:23:06 PM 55.0640 23.6700 267° West 392 451 32,500 -917 Descending FlightAware ADS-B (EPSY / SZY)
Mon 12:23:45 PM 55.0607 23.5521 267° West 386 444 31,900 -1,043 Descending FlightAware ADS-B (EPSY / SZY)
Mon 12:24:15 PM 55.0581 23.4578 267° West 383 441 31,300 -1,600 Descending FlightAware ADS-B (EPSY / SZY)
Mon 12:24:45 PM 55.0555 23.3673 267° West 381 438 30,300 -2,100 Descending FlightAware ADS-B (EPSY / SZY)
Mon 12:25:15 PM 55.0525 23.2733 267° West 377 434 29,200 -2,100 Descending FlightAware ADS-B (EPSY / SZY)
Mon 12:25:45 PM 55.0497 23.1867 267° West 373 429 28,200 -2,100 Descending FlightAware ADS-B (EPSY / SZY)
Mon 12:26:15 PM 55.0469 23.0958 267° West 369 425 27,100 -2,197 Descending FlightAware ADS-B (EPSY / SZY)
Mon 12:26:56 PM 55.0431 22.9787 267° West 365 420 25,600 -2,197 Descending FlightAware ADS-B (EPSY / SZY)
Mon 12:27:26 PM 55.0401 22.8888 267° West 362 417 24,500 -2,197 Descending FlightAware ADS-B (EPSY / SZY)
Mon 12:28:07 PM 55.0362 22.7722 267° West 358 412 23,000 -2,113 Descending FlightAware ADS-B (EPSY / SZY)
Mon 12:28:37 PM 55.0329 22.6831 266° West 355 409 22,000 -1,920 Descending FlightAware ADS-B
Mon 12:29:22 PM 55.0283 22.5567 266° West 347 399 20,600 -1,840 Descending FlightAware ADS-B (EPSY / SZY)
Mon 12:29:52 PM 55.0252 22.4733 266° West 343 395 19,700 -1,810 Descending FlightAware ADS-B (EPSY / SZY)
Mon 12:30:25 PM 55.0219 22.3839 266° West 339 390 18,700 -1,846 Descending FlightAware ADS-B (EPSY / SZY)
Mon 12:30:57 PM 55.0188 22.2997 266° West 336 387 17,700 -1,935 Descending FlightAware ADS-B (EPSY / SZY)
Mon 12:31:27 PM 55.0156 22.2194 266° West 333 383 16,700 -1,875 Descending FlightAware ADS-B (EPSY / SZY)
Mon 12:32:01 PM 55.0118 22.1257 266° West 329 379 15,700 -1,754 Descending FlightAware ADS-B (EPSY / SZY)
Mon 12:32:32 PM 55.0087 22.0483 266° West 328 377 14,800 -1,865 Descending FlightAware ADS-B (EPSY / SZY)
Mon 12:33:15 PM 55.0040 21.9314 266° West 323 372 13,400 -1,865 Descending FlightAware ADS-B (EPSY / SZY)
Mon 12:33:46 PM 55.0008 21.8557 266° West 317 365 12,500 -1,703 Descending FlightAware ADS-B (EPSY / SZY)
Mon 12:34:29 PM 54.9959 21.7469 266° West 307 353 11,300 -1,590 Descending FlightAware ADS-B (EPSY / SZY)
Mon 12:35:09 PM 54.9919 21.6497 266° West 295 339 10,300 -1,250 Descending FlightAware ADS-B (EPSY / SZY)
Mon 12:35:41 PM 54.9887 21.5786 266° West 275 316 9,800 -1,154 Descending FlightAware ADS-B (EPSY / SZY)
Mon 12:36:01 PM 54.9867 21.5332 265° West 272 313 9,300 -1,500 Descending FlightAware ADS-B (EPSY / SZY)
Mon 12:36:21 PM 54.9847 21.4909 265° West 268 308 8,800 -1,647 Descending FlightAware ADS-B (EPSY / SZY)
Mon 12:36:52 PM 54.9816 21.4223 266° West 269 310 7,900 -1,731 Descending FlightAware ADS-B (EPSY / SZY)
Mon 12:37:13 PM 54.9796 21.3790 265° West 266 306 7,300 -1,610 Descending FlightAware ADS-B (EPSY / SZY)
Mon 12:37:33 PM 54.9779 21.3435 265° West 264 304 6,800 -1,463 Descending FlightAware ADS-B (EPSY / SZY)
Mon 12:37:54 PM 54.9759 21.3003 265° West 261 300 6,300 -1,429 Descending FlightAware ADS-B (EPSY / SZY)
Mon 12:40:00 PM 54.9417 21.0143 258° West  Level Estimated
Mon 12:41:00 PM 54.9252 20.8783 258° West  Level Estimated
Mon 12:42:00 PM 54.9086 20.7423 258° West  Level Estimated
Mon 12:43:00 PM 54.8918 20.6065 258° West  Level Estimated
Mon 12:44:00 PM 54.8900 20.5926 258° West  Level Estimated
Mon 12:45:00 PM 54.8900 20.5926 North  Level Estimated
Mon 12:46:00 PM 54.8900 20.5926 North  Level Estimated
Mon 12:47:00 PM 54.8900 20.5926 North  Level Estimated
Mon 12:48:00 PM 54.8900 20.5926 North  Level Estimated
Mon 12:49:00 PM 54.8900 20.5926 North  Level Estimated
Mon 12:50:00 PM 54.8900 20.5926 North  Level Estimated
Mon 12:51:00 PM 54.8900 20.5926 North  Level Estimated
Mon 12:52:00 PM 54.8900 20.5926 North  Level Estimated
Mon 12:53:00 PM 54.8900 20.5926 North  Level Estimated
Mon 12:54:00 PM 54.8900 20.5926 North  Level Estimated
Mon 12:55:00 PM 54.8900 20.5926 North  Level Estimated
Mon 12:56:00 PM 54.8900 20.5926 North  Level Estimated
Mon 12:57:00 PM 54.8900 20.5926 North  Level Estimated
Mon 12:58:00 PM 54.8900 20.5926 North  Level Estimated
Mon 12:59:00 PM 54.8900 20.5926 North  Level Estimated
Mon 01:00:00 PM 54.8900 20.5926 North  Level Estimated
Mon 01:01:00 PM 54.8900 20.5926 North  Level Estimated
Mon 01:02:00 PM 54.8900 20.5926 North  Level Estimated
Mon 01:03:00 PM 54.8900 20.5926 North  Level Estimated
Mon 01:04:00 PM 54.8900 20.5926 North  Level Estimated
Mon 01:05:00 PM 54.8900 20.5926 North  Level Estimated
Mon 01:06:00 PM 54.8900 20.5926 North  Level Estimated
Mon 01:07:00 PM 54.8900 20.5926 North  Level Estimated
Mon 01:08:00 PM 54.8900 20.5926 North  Level Estimated
Mon 01:09:00 PM 54.8900 20.5926 North  Level Estimated
Mon 01:10:00 PM 54.8900 20.5926 North  Level Estimated
Mon 01:11:00 PM 54.8900 20.5926 North  Level Estimated
Mon 01:12:00 PM 54.8900 20.5926 North  Level Estimated
Mon 01:13:00 PM 54.8900 20.5926 North  Level Estimated
Mon 01:14:00 PM 54.8900 20.5926 North  Level Estimated
Mon 01:15:00 PM 54.8900 20.5926 North  Level Estimated
Mon 01:16:00 PM 54.8900 20.5926 North  Level Estimated
Mon 01:17:00 PM 54.8900 20.5926 North  Level Estimated
Mon 01:18:00 PM 54.8900 20.5926 North  Level Estimated
Mon 01:19:00 PM 54.8900 20.5926 North  Level Estimated
Mon 01:20:00 PM 54.8900 20.5926 North  Level Estimated
Mon 01:21:00 PM 54.8900 20.5926 North  Level Estimated

Login

Don't have an account? Register now (free) for customized features, flight alerts, and more!